SKBO

El Dorado International Airport

Bogota, Colombia
TAF SKBO 201700Z 2018/2118 13010KT 9999 SCT020 BKN090 TEMPO 2018/2020 VRB03KT 8000 VCSH SCT020 BKN080 BECMG 2102/2104 03005KT TX19/2019Z TN09/2111Z
Issued Valid From Valid To
Jan-20 @ 17:00 UTC
(4 hours ago)
Jan-20 @ 18:00 UTC
(3 hours ago)
Jan-21 @ 18:00 UTC
(in 21 hours)
Jan-20 @ 18:00 to Jan-21 @ 02:00
TAF SKBO 201700Z 2018/2118 13010KT 9999 SCT020 BKN090
Wind Visibility Clouds
130° at 10 knots 10,000+ meters
  • Scattered at 2,000' AGL
  • Broken at 9,000' AGL
Expired Click to View Jan-20 @ 18:00 to Jan-20 @ 20:00
TEMPO 2018/2020 VRB03KT 8000 VCSH SCT020 BKN080
Wind Visibility Clouds
Variable at 3 knots 7,998 meters
  • Scattered at 2,000' AGL
  • Broken at 8,000' AGL
Becoming Jan-21 @ 02:00 to Jan-21 @ 18:00
BECMG 2102/2104 03005KT TX19/2019Z TN09/2111Z
Wind Visibility Clouds
30° at 5 knots 10,000+ meters
  • Scattered at 2,000' AGL
  • Broken at 9,000' AGL
TAF SKBO 201700Z 2018/2118 13010KT 9999 SCT020 BKN090 TEMPO 2018/2020 VRB03KT 8000 VCSH SCT020 BKN080 BECMG 2102/2104 03005KT TX19/2019Z TN09/2111Z
Issued Jan-20 @ 17:00 UTC
(4 hours ago)
Valid From Jan-20 @ 18:00 UTC
(3 hours ago)
Valid To Jan-21 @ 18:00 UTC
(in 21 hours)
Jan-20 @ 18:00 - Jan-21 @ 02:00
Wind Visibility
130° at 10 knots 10,000+ meters
Clouds
  • Scattered at 2,000' AGL
  • Broken at 9,000' AGL
Jan-20 @ 18:00 - Jan-20 @ 20:00
Wind Visibility
Variable at 3 knots 7,998 meters
Clouds
  • Scattered at 2,000' AGL
  • Broken at 8,000' AGL
Becoming Jan-21 @ 02:00 - Jan-21 @ 18:00
Wind Visibility
30° at 5 knots 10,000+ meters
Clouds
  • Scattered at 2,000' AGL
  • Broken at 9,000' AGL